Rothesay, Canada
Current Conditions -  °F | °C
As of 2:30 AM on Friday 19 Dec 2014 (Local Time) from CYSJ Reporting Station
Overcast Overcast  
Wind Chill: 17°   Ceiling: 1800
Heat Index: 28°   Visibility: 15mi
Dew Point: 25°   Wind: 15mph
Humidity: 86%   Direction: 310°NW
Pressure: 29.59"   Gusts: 22mph
Location:  45.39°N, 65.99°W
Report Text: CYSJ 190630Z 31013G19KT 15SM BKN018 OVC025 M02/M04 A2959 RMK SC5SC3 SLP025
Loading
Personal Weather Stations






























Interactive Weather Map New forecast layout! Learn more

10-Day Weather Forecast

Advertisements
Track Severe Weather on mobile